CheckWX is a tool to help pilots better visualize weather data.  It is not intended as a substitute for an official pre-flight weather briefing.

21:15:31 UTC

KOXR TAF
Oxnard Airport
Oxnard, California, USA
KOXR 191724Z 1918/2018 25006KT P6SM SCT025 FM192100 27012KT P6SM SKC FM200300 VRB04KT P6SM SKC FM201700 05006KT P6SM SKC

Sep-19@
18:00 UTC

Sep-19 @ 18:00 UTC

Sep-19@
21:00 UTC

Sep-19 @ 21:00 UTC

KOXR 191724Z 1918/2018 25006KT P6SM SCT025

Expired

Wind
  • 250° at 6 KTS
Cloud Levels
  • Scattered at 2,500' AGL

Sep-19@
21:00 UTC

Sep-19 @ 21:00 UTC

Sep-20@
03:00 UTC

Sep-20 @ 03:00 UTC

FM192100 27012KT P6SM SKC

From

From Standard forecast or significant change

Wind
  • 270° at 12 KTS
Cloud Levels
  • Clear skies

Sep-20@
03:00 UTC

Sep-20 @ 03:00 UTC

Sep-20@
17:00 UTC

Sep-20 @ 17:00 UTC

FM200300 VRB04KT P6SM SKC

From

From Standard forecast or significant change

Wind
  • Variable at 4 KTS
Cloud Levels
  • Clear skies

Sep-20@
17:00 UTC

Sep-20 @ 17:00 UTC

Sep-20@
18:00 UTC

Sep-20 @ 18:00 UTC

FM201700 05006KT P6SM SKC

From

From Standard forecast or significant change

Wind
  • 050° at 6 KTS
Cloud Levels
  • Clear skies